createdAt,value
2017-10-27T00:00:29.589Z,81.20
2017-10-27T00:02:57.067Z,81.40
2017-10-27T00:05:24.554Z,81.60
2017-10-27T00:07:52.052Z,81.50
2017-10-27T00:10:19.540Z,81.80
2017-10-27T00:12:47.031Z,81.70
2017-10-27T00:15:14.520Z,81.70
2017-10-27T00:17:42.007Z,82.00
2017-10-27T00:20:09.520Z,82.10
2017-10-27T00:22:37.050Z,81.50
2017-10-27T00:25:05.330Z,81.40
2017-10-27T00:27:33.602Z,81.30
2017-10-27T00:30:01.867Z,81.50
2017-10-27T00:32:30.127Z,81.80
2017-10-27T00:34:57.611Z,81.40
2017-10-27T00:37:25.864Z,80.60
2017-10-27T00:39:53.352Z,80.60
2017-10-27T00:42:20.867Z,80.70
2017-10-27T00:44:48.368Z,80.80
2017-10-27T00:47:16.632Z,80.60
2017-10-27T00:49:44.871Z,80.40
2017-10-27T00:52:12.395Z,80.40
2017-10-27T00:54:39.884Z,80.70
2017-10-27T00:57:07.392Z,80.90
2017-10-27T00:59:35.650Z,81.00
2017-10-27T01:02:03.901Z,81.70
2017-10-27T01:04:31.383Z,81.30
2017-10-27T01:06:59.636Z,81.50
2017-10-27T01:09:27.153Z,81.40
2017-10-27T01:11:54.642Z,81.70
2017-10-27T01:14:22.127Z,81.50
2017-10-27T01:16:49.620Z,81.40
2017-10-27T01:19:17.096Z,81.20
2017-10-27T01:21:44.591Z,81.60
2017-10-27T01:24:12.093Z,81.20
2017-10-27T01:26:39.576Z,81.60
2017-10-27T01:29:07.056Z,81.10
2017-10-27T01:31:34.555Z,81.60
2017-10-27T01:34:02.056Z,81.70
2017-10-27T01:36:29.551Z,81.60
2017-10-27T01:38:57.800Z,82.70
2017-10-27T01:41:25.289Z,82.10
2017-10-27T01:43:53.533Z,82.80
2017-10-27T01:46:21.041Z,82.70
2017-10-27T01:48:48.523Z,83.10
2017-10-27T01:51:16.022Z,83.00
2017-10-27T01:53:43.523Z,83.50
2017-10-27T01:56:11.016Z,83.90
2017-10-27T01:58:38.513Z,84.00
2017-10-27T02:01:06.800Z,84.20
2017-10-27T02:03:35.045Z,84.40
2017-10-27T02:06:02.552Z,84.40
2017-10-27T02:08:30.036Z,84.50
2017-10-27T02:10:57.523Z,84.70
2017-10-27T02:13:25.007Z,85.00
2017-10-27T02:15:53.262Z,85.20
2017-10-27T02:18:21.515Z,85.20
2017-10-27T02:20:49.782Z,85.20
2017-10-27T02:23:17.311Z,85.20
2017-10-27T02:25:44.799Z,85.20
2017-10-27T02:28:12.293Z,85.10
2017-10-27T02:30:40.549Z,85.20
2017-10-27T02:33:08.033Z,85.10
2017-10-27T02:35:36.293Z,85.50
2017-10-27T02:38:03.781Z,85.40
2017-10-27T02:40:31.277Z,85.60
2017-10-27T02:42:58.753Z,85.60
2017-10-27T02:45:26.247Z,85.80
2017-10-27T02:47:53.728Z,85.80
2017-10-27T02:50:21.220Z,85.80
2017-10-27T02:52:48.713Z,85.90
2017-10-27T02:55:17.890Z,85.60
2017-10-27T02:57:45.387Z,85.60
2017-10-27T03:00:12.876Z,85.50
2017-10-27T03:02:40.368Z,85.30
2017-10-27T03:05:07.849Z,85.30
2017-10-27T03:07:35.349Z,85.40
2017-10-27T03:10:02.861Z,85.00
2017-10-27T03:12:31.107Z,84.50
2017-10-27T03:14:58.592Z,84.50
2017-10-27T03:17:26.857Z,84.70
2017-10-27T03:19:55.129Z,84.20
2017-10-27T03:22:23.420Z,84.00
2017-10-27T03:24:51.668Z,83.50
2017-10-27T03:27:19.165Z,83.40
2017-10-27T03:29:46.655Z,83.60
2017-10-27T03:32:14.167Z,83.70
2017-10-27T03:34:42.411Z,83.90
2017-10-27T03:37:09.905Z,83.90
2017-10-27T03:39:37.395Z,84.10
2017-10-27T03:42:04.886Z,83.80
2017-10-27T03:44:32.372Z,84.00
2017-10-27T03:47:00.628Z,84.20
2017-10-27T03:49:28.112Z,84.10
2017-10-27T03:51:56.389Z,84.00
2017-10-27T03:54:23.898Z,84.00
2017-10-27T03:56:51.382Z,83.60
2017-10-27T03:59:19.710Z,83.70
2017-10-27T04:01:47.195Z,83.70
2017-10-27T04:04:14.685Z,83.30
2017-10-27T04:06:42.945Z,82.50
2017-10-27T04:09:10.418Z,82.40
2017-10-27T04:11:37.938Z,82.60
2017-10-27T04:14:05.488Z,82.80
2017-10-27T04:16:33.239Z,82.70
2017-10-27T04:19:00.748Z,82.80
2017-10-27T04:21:29.157Z,82.30
2017-10-27T04:23:56.636Z,82.40
2017-10-27T04:26:24.152Z,82.60
2017-10-27T04:28:52.523Z,82.50
2017-10-27T04:31:20.144Z,82.50
2017-10-27T04:33:48.447Z,83.00
2017-10-27T04:36:15.956Z,82.90
2017-10-27T04:38:43.459Z,82.90
2017-10-27T04:41:10.960Z,82.60
2017-10-27T04:43:38.446Z,82.80
2017-10-27T04:46:05.948Z,82.90
2017-10-27T04:48:34.257Z,82.70
2017-10-27T04:51:01.771Z,82.60
2017-10-27T04:53:29.316Z,82.90
2017-10-27T04:55:56.851Z,82.40
2017-10-27T04:58:24.332Z,82.60
2017-10-27T05:00:51.824Z,81.60
2017-10-27T05:03:20.068Z,80.90
2017-10-27T05:05:47.564Z,80.90
2017-10-27T05:08:15.051Z,80.60
2017-10-27T05:10:42.540Z,80.60
2017-10-27T05:13:10.016Z,79.90
2017-10-27T05:15:37.503Z,79.50
2017-10-27T05:18:10.589Z,79.80
2017-10-27T05:20:43.831Z,79.90
2017-10-27T05:23:16.996Z,79.60
2017-10-27T05:25:44.539Z,79.90
2017-10-27T05:28:12.098Z,80.10
2017-10-27T05:30:39.599Z,80.00
2017-10-27T05:33:07.089Z,80.10
2017-10-27T05:35:35.385Z,80.60
2017-10-27T05:38:02.892Z,80.50
2017-10-27T05:40:30.921Z,80.60
2017-10-27T05:42:58.479Z,80.40
2017-10-27T05:45:25.982Z,80.50
2017-10-27T05:47:53.475Z,80.40
2017-10-27T05:50:21.732Z,80.60
2017-10-27T05:52:49.211Z,80.60
2017-10-27T05:55:17.463Z,81.40
2017-10-27T05:57:44.968Z,81.30
2017-10-27T06:00:12.480Z,80.80
2017-10-27T06:02:40.744Z,81.50
2017-10-27T06:05:08.402Z,81.40
2017-10-27T06:07:35.922Z,80.70
2017-10-27T06:10:03.520Z,80.60
2017-10-27T06:12:31.050Z,80.70
2017-10-27T06:14:58.540Z,81.00
2017-10-27T06:17:26.824Z,81.00
2017-10-27T06:19:54.348Z,81.00
2017-10-27T06:22:21.838Z,81.30
2017-10-27T06:24:49.399Z,81.80
2017-10-27T06:27:16.922Z,81.50
2017-10-27T06:29:44.441Z,81.90
2017-10-27T06:32:12.784Z,81.80
2017-10-27T06:34:40.296Z,81.80
2017-10-27T06:37:07.785Z,82.70
2017-10-27T06:39:35.294Z,81.90
2017-10-27T06:42:03.596Z,81.80
2017-10-27T06:44:31.072Z,81.80
2017-10-27T06:46:58.615Z,81.50
2017-10-27T06:49:26.149Z,81.70
2017-10-27T06:51:54.464Z,82.00
2017-10-27T06:54:21.946Z,81.90
2017-10-27T06:56:49.469Z,82.10
2017-10-27T06:59:16.989Z,82.40
2017-10-27T07:01:45.232Z,82.60
2017-10-27T07:04:12.723Z,82.50
2017-10-27T07:06:41.008Z,81.20
2017-10-27T07:09:08.560Z,80.50
2017-10-27T07:11:36.806Z,80.60
2017-10-27T07:14:04.763Z,80.50
2017-10-27T07:16:33.051Z,79.40
2017-10-27T07:19:01.355Z,79.40
2017-10-27T07:21:29.667Z,78.70
2017-10-27T07:23:57.192Z,78.60
2017-10-27T07:26:25.432Z,77.80
2017-10-27T07:28:52.919Z,77.80
2017-10-27T07:31:20.486Z,76.70
2017-10-27T07:33:48.733Z,76.00
2017-10-27T07:36:16.226Z,76.00
2017-10-27T07:38:44.589Z,74.90
2017-10-27T07:41:12.858Z,74.30
2017-10-27T07:43:40.347Z,74.30
2017-10-27T07:46:07.863Z,73.50
2017-10-27T07:48:35.471Z,73.00
2017-10-27T07:51:02.960Z,72.90
2017-10-27T07:53:30.444Z,72.80
2017-10-27T07:55:57.968Z,73.40
2017-10-27T07:58:25.519Z,72.60
2017-10-27T08:00:53.070Z,72.70
2017-10-27T08:03:20.552Z,72.90
2017-10-27T08:05:48.126Z,72.40
2017-10-27T08:08:15.616Z,72.50
2017-10-27T08:10:43.869Z,72.50
2017-10-27T08:13:11.348Z,72.50
2017-10-27T08:15:39.598Z,72.40
2017-10-27T08:18:07.099Z,72.40
2017-10-27T08:20:34.604Z,72.30
2017-10-27T08:23:02.140Z,72.00
2017-10-27T08:25:29.644Z,72.40
2017-10-27T08:27:57.140Z,71.70
2017-10-27T08:30:24.641Z,70.20
2017-10-27T08:32:52.175Z,70.00
2017-10-27T08:35:19.659Z,70.50
2017-10-27T08:37:47.140Z,70.20
2017-10-27T08:40:15.411Z,70.50
2017-10-27T08:42:42.908Z,70.50
2017-10-27T08:45:10.417Z,69.70
2017-10-27T08:47:37.916Z,69.20
2017-10-27T08:50:05.403Z,68.50
2017-10-27T08:52:32.894Z,68.50
2017-10-27T08:55:00.377Z,68.40
2017-10-27T08:57:28.633Z,66.60
2017-10-27T08:59:56.108Z,66.60
2017-10-27T09:02:24.365Z,65.90
2017-10-27T09:04:51.848Z,65.80
2017-10-27T09:07:19.363Z,65.50
2017-10-27T09:09:46.867Z,65.80
2017-10-27T09:12:14.457Z,65.80
2017-10-27T09:14:41.948Z,66.90
2017-10-27T09:17:09.429Z,67.10
2017-10-27T09:19:37.773Z,67.30
2017-10-27T09:22:05.305Z,67.20
2017-10-27T09:24:33.314Z,68.00
2017-10-27T09:27:00.801Z,68.60
2017-10-27T09:29:29.040Z,70.40
2017-10-27T09:31:56.524Z,70.40
2017-10-27T09:34:24.835Z,71.20
2017-10-27T09:36:52.319Z,71.20
2017-10-27T09:39:19.864Z,70.40
2017-10-27T09:41:47.413Z,70.90
2017-10-27T09:44:14.967Z,69.40
2017-10-27T09:46:42.457Z,68.70
2017-10-27T09:49:09.976Z,67.00
2017-10-27T09:51:37.477Z,67.30
2017-10-27T09:54:05.723Z,66.10
2017-10-27T09:56:33.211Z,66.10
2017-10-27T09:59:00.690Z,66.40
2017-10-27T10:01:28.186Z,67.60
2017-10-27T10:03:55.677Z,68.40
2017-10-27T10:06:23.171Z,67.80
2017-10-27T10:08:51.416Z,69.00
2017-10-27T10:11:18.904Z,68.80
2017-10-27T10:13:46.494Z,69.70
2017-10-27T10:16:13.991Z,70.30
2017-10-27T10:18:41.510Z,71.10
2017-10-27T10:21:09.003Z,68.10
2017-10-27T10:23:36.488Z,66.30
2017-10-27T10:26:04.837Z,65.20
2017-10-27T10:28:32.367Z,65.20
2017-10-27T10:30:59.943Z,64.40
2017-10-27T10:33:27.421Z,65.20
2017-10-27T10:35:54.937Z,64.00
2017-10-27T10:38:22.548Z,62.50
2017-10-27T10:40:50.145Z,61.20
2017-10-27T10:43:17.652Z,61.60
2017-10-27T10:45:45.155Z,61.10
2017-10-27T10:48:13.399Z,63.70
2017-10-27T10:50:41.387Z,63.60
2017-10-27T10:53:09.627Z,67.40
2017-10-27T10:55:37.130Z,67.40
2017-10-27T10:58:05.388Z,70.40
2017-10-27T11:00:32.907Z,70.40
2017-10-27T11:03:00.441Z,71.40
2017-10-27T11:05:27.936Z,72.70
2017-10-27T11:07:55.564Z,73.90
2017-10-27T11:10:23.061Z,73.70
2017-10-27T11:12:50.556Z,74.00
2017-10-27T11:15:18.805Z,75.20
2017-10-27T11:17:46.296Z,75.20
2017-10-27T11:20:13.801Z,75.90
2017-10-27T11:22:41.290Z,75.50
2017-10-27T11:25:09.549Z,76.50
2017-10-27T11:27:37.043Z,76.40
2017-10-27T11:30:05.297Z,76.20
2017-10-27T11:32:33.579Z,76.50
2017-10-27T11:35:01.856Z,76.30
2017-10-27T11:37:30.110Z,75.90
2017-10-27T11:39:57.587Z,75.90
2017-10-27T11:42:25.915Z,75.80
2017-10-27T11:44:53.413Z,75.10
2017-10-27T11:47:20.917Z,75.30
2017-10-27T11:49:48.507Z,75.70
2017-10-27T11:52:16.004Z,75.80
2017-10-27T11:54:44.255Z,76.40
2017-10-27T11:57:11.780Z,76.30
2017-10-27T11:59:39.279Z,76.40
2017-10-27T12:02:06.869Z,76.70
2017-10-27T12:04:34.357Z,76.70
2017-10-27T12:07:01.857Z,75.80
2017-10-27T12:09:29.391Z,71.50
2017-10-27T12:11:56.876Z,66.40
2017-10-27T12:14:24.369Z,60.20
2017-10-27T12:16:51.933Z,53.10
2017-10-27T12:19:19.417Z,47.20
2017-10-27T12:21:46.937Z,41.90
2017-10-27T12:24:14.427Z,35.10
2017-10-27T12:26:41.912Z,35.80
2017-10-27T12:29:09.424Z,30.50
2017-10-27T12:31:36.916Z,29.80
2017-10-27T12:34:04.393Z,32.40
2017-10-27T12:36:31.904Z,30.40
2017-10-27T12:38:59.435Z,31.70
2017-10-27T12:41:27.720Z,40.20
2017-10-27T12:43:55.208Z,40.10
2017-10-27T12:46:22.704Z,44.20
2017-10-27T12:48:50.227Z,48.80
2017-10-27T12:51:17.747Z,52.70
2017-10-27T12:53:45.279Z,55.60
2017-10-27T12:56:12.778Z,58.20
2017-10-27T12:58:40.275Z,60.40
2017-10-27T13:01:07.764Z,62.00
2017-10-27T13:03:36.026Z,64.80
2017-10-27T13:06:04.296Z,65.80
2017-10-27T13:08:31.811Z,65.70
2017-10-27T13:10:59.324Z,66.30
2017-10-27T13:13:26.810Z,66.90
2017-10-27T13:15:54.352Z,67.80
2017-10-27T13:18:22.596Z,67.90
2017-10-27T13:20:50.095Z,67.90
2017-10-27T13:23:18.341Z,68.60
2017-10-27T13:25:45.823Z,68.60
2017-10-27T13:28:14.074Z,68.50
2017-10-27T13:30:41.567Z,68.40
2017-10-27T13:33:09.049Z,68.40
2017-10-27T13:35:36.540Z,68.70
2017-10-27T13:38:04.020Z,69.20
2017-10-27T13:40:32.275Z,70.80
2017-10-27T13:42:59.755Z,70.80
2017-10-27T13:45:28.036Z,72.30
2017-10-27T13:47:56.278Z,73.00
2017-10-27T13:50:23.916Z,73.00
2017-10-27T13:52:51.392Z,73.00
2017-10-27T13:55:18.888Z,73.10
2017-10-27T13:57:47.129Z,71.90
2017-10-27T14:00:14.660Z,71.90
2017-10-27T14:02:42.171Z,66.00
2017-10-27T14:05:10.431Z,53.60
2017-10-27T14:07:37.930Z,53.60
2017-10-27T14:10:05.412Z,53.30
2017-10-27T14:12:32.907Z,53.10
2017-10-27T14:15:00.415Z,50.60
2017-10-27T14:17:27.914Z,49.60
2017-10-27T14:19:55.400Z,48.30
2017-10-27T14:22:23.673Z,46.20
2017-10-27T14:24:51.928Z,46.10
2017-10-27T14:27:19.419Z,46.00
2017-10-27T14:29:47.715Z,46.90
2017-10-27T14:32:15.347Z,46.90
2017-10-27T14:34:42.837Z,47.70
2017-10-27T14:37:10.328Z,50.10
2017-10-27T14:39:37.808Z,51.60
2017-10-27T14:42:06.060Z,57.00
2017-10-27T14:44:44.587Z,57.00
2017-10-27T14:47:12.169Z,59.20
2017-10-27T14:49:40.433Z,61.60
2017-10-27T14:52:08.700Z,63.00
2017-10-27T14:54:36.195Z,62.90
2017-10-27T14:57:03.673Z,64.20
2017-10-27T14:59:31.150Z,65.50
2017-10-27T15:01:58.663Z,66.10
2017-10-27T15:04:26.193Z,66.90
2017-10-27T15:06:53.685Z,67.60
2017-10-27T15:09:21.180Z,67.90
2017-10-27T15:11:48.660Z,68.30
2017-10-27T15:14:16.154Z,68.60
2017-10-27T15:16:43.656Z,68.70
2017-10-27T15:19:11.124Z,69.00
2017-10-27T15:21:38.707Z,69.40
2017-10-27T15:24:06.216Z,69.80
2017-10-27T15:26:33.712Z,70.60
2017-10-27T15:29:01.205Z,70.20
2017-10-27T15:31:28.700Z,70.10
2017-10-27T15:33:56.177Z,70.30
2017-10-27T15:36:23.767Z,70.60
2017-10-27T15:38:52.049Z,71.20
2017-10-27T15:41:20.321Z,71.10
2017-10-27T15:43:48.602Z,71.00
2017-10-27T15:46:16.136Z,71.00
2017-10-27T15:48:43.629Z,71.00
2017-10-27T15:51:11.145Z,71.10
2017-10-27T15:53:38.642Z,71.50
2017-10-27T15:56:06.129Z,71.40
2017-10-27T15:58:33.613Z,71.80
2017-10-27T16:01:01.100Z,72.20
2017-10-27T16:03:29.348Z,72.30
2017-10-27T16:05:56.836Z,72.90
2017-10-27T16:08:25.084Z,72.10
2017-10-27T16:10:52.582Z,72.10
2017-10-27T16:13:20.062Z,72.30
2017-10-27T16:15:47.607Z,72.30
2017-10-27T16:18:15.093Z,72.60
2017-10-27T16:20:42.583Z,72.70
2017-10-27T16:23:10.131Z,72.50
2017-10-27T16:25:37.667Z,72.40
2017-10-27T16:28:05.195Z,72.60
2017-10-27T16:30:32.718Z,72.70
2017-10-27T16:33:00.219Z,72.70
2017-10-27T16:35:27.703Z,72.70
2017-10-27T16:37:55.188Z,72.30
2017-10-27T16:40:22.683Z,72.50
2017-10-27T16:42:50.151Z,72.70
2017-10-27T16:45:17.697Z,72.80
2017-10-27T16:47:45.189Z,72.60
2017-10-27T16:50:12.704Z,73.20
2017-10-27T16:52:40.403Z,72.90
2017-10-27T16:55:07.945Z,72.70
2017-10-27T16:57:35.422Z,72.80
2017-10-27T17:00:02.912Z,72.60
2017-10-27T17:02:30.519Z,73.00
2017-10-27T17:04:58.027Z,73.30
2017-10-27T17:07:25.803Z,73.00
2017-10-27T17:09:53.337Z,72.80
2017-10-27T17:12:20.831Z,72.70
2017-10-27T17:14:49.145Z,73.40
2017-10-27T17:17:16.647Z,73.40
2017-10-27T17:19:44.140Z,73.20
2017-10-27T17:22:11.704Z,73.40
2017-10-27T17:24:39.180Z,73.40
2017-10-27T17:27:06.680Z,73.20
2017-10-27T17:29:34.156Z,73.40
2017-10-27T17:32:02.419Z,73.60
2017-10-27T17:34:30.111Z,73.50
2017-10-27T17:36:57.600Z,73.00
2017-10-27T17:39:25.071Z,72.90
2017-10-27T17:41:52.569Z,72.50
2017-10-27T17:44:21.764Z,72.70
2017-10-27T17:46:50.028Z,73.10
2017-10-27T17:49:17.508Z,73.10
2017-10-27T17:51:45.020Z,73.10
2017-10-27T17:54:12.491Z,72.90
2017-10-27T17:56:40.072Z,72.70
2017-10-27T17:59:08.333Z,72.80
2017-10-27T18:01:43.331Z,72.80
2017-10-27T18:04:10.864Z,73.00
2017-10-27T18:06:38.392Z,73.00
2017-10-27T18:09:06.655Z,73.20
2017-10-27T18:11:34.226Z,73.10
2017-10-27T18:14:02.487Z,72.80
2017-10-27T18:16:30.763Z,72.80
2017-10-27T18:18:58.290Z,72.80
2017-10-27T18:21:25.879Z,72.80
2017-10-27T18:23:53.480Z,72.60
2017-10-27T18:26:20.972Z,72.60
2017-10-27T18:28:48.528Z,72.00
2017-10-27T18:31:17.005Z,72.10
2017-10-27T18:33:44.483Z,72.40
2017-10-27T18:36:11.972Z,72.60
2017-10-27T18:38:40.223Z,72.90
2017-10-27T18:41:07.723Z,72.90
2017-10-27T18:43:35.264Z,74.30
2017-10-27T18:46:03.522Z,74.70
2017-10-27T18:48:30.999Z,74.60
2017-10-27T18:50:59.247Z,75.40
2017-10-27T18:53:26.724Z,75.20
2017-10-27T18:55:54.227Z,75.40
2017-10-27T18:58:21.733Z,75.20
2017-10-27T19:00:49.236Z,75.60
2017-10-27T19:03:16.747Z,75.40
2017-10-27T19:05:44.255Z,75.70
2017-10-27T19:08:11.739Z,76.10
2017-10-27T19:10:40.042Z,76.20
2017-10-27T19:13:07.549Z,76.20
2017-10-27T19:15:35.027Z,76.60
2017-10-27T19:18:02.517Z,76.10
2017-10-27T19:20:30.784Z,76.20
2017-10-27T19:22:58.275Z,76.10
2017-10-27T19:25:26.523Z,75.80
2017-10-27T19:27:53.999Z,75.70
2017-10-27T19:30:22.333Z,75.90
2017-10-27T19:32:49.815Z,75.90
2017-10-27T19:35:17.313Z,75.70
2017-10-27T19:37:44.806Z,75.10
2017-10-27T19:40:12.292Z,75.50
2017-10-27T19:42:39.790Z,75.80
2017-10-27T19:45:07.352Z,75.20
2017-10-27T19:47:34.835Z,75.00
2017-10-27T19:50:02.502Z,75.60
2017-10-27T19:52:30.044Z,75.20
2017-10-27T19:54:57.528Z,75.80
2017-10-27T19:57:25.008Z,75.50
2017-10-27T19:59:53.249Z,75.30
2017-10-27T20:02:20.752Z,75.30
2017-10-27T20:04:48.988Z,75.40
2017-10-27T20:07:16.524Z,75.30
2017-10-27T20:09:44.007Z,75.50
2017-10-27T20:12:11.503Z,75.20
2017-10-27T20:14:38.992Z,75.40
2017-10-27T20:17:06.503Z,74.90
2017-10-27T20:19:34.747Z,75.00
2017-10-27T20:22:02.304Z,75.00
2017-10-27T20:24:29.836Z,74.90
2017-10-27T20:26:57.351Z,75.40
2017-10-27T20:29:25.622Z,75.10
2017-10-27T20:31:53.170Z,75.00
2017-10-27T20:34:20.692Z,74.80
2017-10-27T20:36:48.199Z,75.30
2017-10-27T20:39:15.737Z,75.40
2017-10-27T20:41:43.228Z,75.70
2017-10-27T20:44:11.529Z,75.90
2017-10-27T20:46:39.016Z,75.80
2017-10-27T20:49:06.485Z,76.00
2017-10-27T20:51:33.965Z,75.80
2017-10-27T20:54:01.450Z,76.10
2017-10-27T20:56:28.985Z,75.90
2017-10-27T20:58:56.475Z,76.40
2017-10-27T21:01:23.969Z,76.80
2017-10-27T21:03:51.455Z,76.10
2017-10-27T21:06:18.951Z,75.90
2017-10-27T21:08:46.428Z,75.60
2017-10-27T21:11:14.716Z,75.10
2017-10-27T21:13:42.209Z,75.10
2017-10-27T21:16:09.679Z,75.20
2017-10-27T21:18:37.926Z,75.00
2017-10-27T21:21:06.188Z,75.30
2017-10-27T21:23:33.679Z,75.20
2017-10-27T21:26:01.955Z,75.20
2017-10-27T21:28:30.239Z,75.20
2017-10-27T21:30:58.480Z,75.10
2017-10-27T21:33:26.004Z,75.10
2017-10-27T21:35:53.484Z,75.70
2017-10-27T21:38:20.963Z,75.10
2017-10-27T21:40:48.449Z,75.60
2017-10-27T21:43:16.697Z,75.80
2017-10-27T21:45:44.175Z,75.80
2017-10-27T21:48:12.411Z,75.80
2017-10-27T21:50:39.908Z,75.70
2017-10-27T21:53:08.149Z,75.50
2017-10-27T21:55:35.653Z,75.50
2017-10-27T21:58:03.127Z,75.90
2017-10-27T22:00:30.694Z,75.70
2017-10-27T22:02:58.192Z,75.70
2017-10-27T22:05:26.490Z,76.10
2017-10-27T22:07:53.992Z,76.10
2017-10-27T22:10:21.601Z,76.30
2017-10-27T22:12:49.848Z,77.10
2017-10-27T22:15:17.351Z,76.40
2017-10-27T22:17:45.595Z,77.00
2017-10-27T22:20:13.074Z,77.00
2017-10-27T22:22:41.339Z,77.10
2017-10-27T22:25:08.880Z,77.10
2017-10-27T22:27:36.371Z,77.70
2017-10-27T22:30:04.720Z,77.30
2017-10-27T22:32:32.196Z,77.30
2017-10-27T22:35:00.455Z,77.40
2017-10-27T22:37:27.948Z,77.30
2017-10-27T22:39:55.429Z,77.40
2017-10-27T22:42:22.930Z,77.50
2017-10-27T22:44:50.464Z,77.50
2017-10-27T22:47:17.956Z,77.50
2017-10-27T22:49:46.253Z,77.90
2017-10-27T22:52:13.780Z,77.40
2017-10-27T22:54:41.267Z,77.50
2017-10-27T22:57:09.928Z,77.80
2017-10-27T22:59:37.407Z,77.80
2017-10-27T23:02:05.654Z,77.70
2017-10-27T23:04:33.126Z,77.60
2017-10-27T23:07:00.604Z,77.80
2017-10-27T23:09:28.083Z,78.10
2017-10-27T23:11:55.588Z,77.90
2017-10-27T23:14:23.097Z,78.00
2017-10-27T23:16:50.596Z,78.00
2017-10-27T23:19:18.090Z,77.70
2017-10-27T23:21:45.576Z,77.90
2017-10-27T23:24:13.072Z,77.90
2017-10-27T23:26:40.566Z,77.80
2017-10-27T23:29:08.808Z,77.90
2017-10-27T23:31:36.308Z,77.90
2017-10-27T23:34:03.801Z,78.10
2017-10-27T23:36:31.354Z,78.40
2017-10-27T23:38:58.838Z,78.20
2017-10-27T23:41:26.363Z,78.40
2017-10-27T23:43:54.735Z,78.30
2017-10-27T23:46:22.244Z,78.40
2017-10-27T23:48:49.723Z,78.50
2017-10-27T23:51:18.091Z,78.80
2017-10-27T23:53:46.342Z,78.90
2017-10-27T23:56:13.829Z,78.90
2017-10-27T23:58:41.319Z,78.90
